sensor_id;sensor_type;location;lat;lon;timestamp;temperature;humidity
17039;DHT22;8636;55.750;13.202;2024-01-30T00:01:03;2.20;99.90
17039;DHT22;8636;55.750;13.202;2024-01-30T00:03:40;2.20;99.90
17039;DHT22;8636;55.750;13.202;2024-01-30T00:06:08;2.20;99.90
17039;DHT22;8636;55.750;13.202;2024-01-30T00:08:42;2.30;99.90
17039;DHT22;8636;55.750;13.202;2024-01-30T00:11:13;2.30;99.90
17039;DHT22;8636;55.750;13.202;2024-01-30T00:13:47;2.30;99.90
17039;DHT22;8636;55.750;13.202;2024-01-30T00:16:21;2.30;99.90
17039;DHT22;8636;55.750;13.202;2024-01-30T00:18:58;2.30;99.90
17039;DHT22;8636;55.750;13.202;2024-01-30T00:21:35;2.40;99.90
17039;DHT22;8636;55.750;13.202;2024-01-30T00:24:09;2.50;99.90
17039;DHT22;8636;55.750;13.202;2024-01-30T00:26:37;2.50;99.90
17039;DHT22;8636;55.750;13.202;2024-01-30T00:29:11;2.60;99.90
17039;DHT22;8636;55.750;13.202;2024-01-30T00:31:45;2.60;99.90
17039;DHT22;8636;55.750;13.202;2024-01-30T00:34:21;2.60;99.90
17039;DHT22;8636;55.750;13.202;2024-01-30T00:36:50;2.70;99.90
17039;DHT22;8636;55.750;13.202;2024-01-30T00:39:24;2.70;99.90
17039;DHT22;8636;55.750;13.202;2024-01-30T00:41:52;2.80;99.90
17039;DHT22;8636;55.750;13.202;2024-01-30T00:44:26;2.80;99.90
17039;DHT22;8636;55.750;13.202;2024-01-30T00:47:01;2.80;99.90
17039;DHT22;8636;55.750;13.202;2024-01-30T00:49:38;2.70;99.90
17039;DHT22;8636;55.750;13.202;2024-01-30T00:52:06;2.80;99.90
17039;DHT22;8636;55.750;13.202;2024-01-30T00:54:40;2.70;99.90
17039;DHT22;8636;55.750;13.202;2024-01-30T00:57:08;2.80;99.90
17039;DHT22;8636;55.750;13.202;2024-01-30T00:59:42;2.80;99.90
17039;DHT22;8636;55.750;13.202;2024-01-30T01:02:10;2.90;99.90
17039;DHT22;8636;55.750;13.202;2024-01-30T01:04:47;2.90;99.90
17039;DHT22;8636;55.750;13.202;2024-01-30T01:07:15;2.90;99.90
17039;DHT22;8636;55.750;13.202;2024-01-30T01:09:49;3.00;99.90
17039;DHT22;8636;55.750;13.202;2024-01-30T01:12:18;3.00;99.90
17039;DHT22;8636;55.750;13.202;2024-01-30T01:14:52;3.00;99.90
17039;DHT22;8636;55.750;13.202;2024-01-30T01:17:20;3.10;99.90
17039;DHT22;8636;55.750;13.202;2024-01-30T01:20:03;3.10;99.90
17039;DHT22;8636;55.750;13.202;2024-01-30T01:22:33;3.10;99.90
17039;DHT22;8636;55.750;13.202;2024-01-30T01:25:08;3.10;99.90
17039;DHT22;8636;55.750;13.202;2024-01-30T01:27:37;3.10;99.90
17039;DHT22;8636;55.750;13.202;2024-01-30T01:30:13;3.20;99.90
17039;DHT22;8636;55.750;13.202;2024-01-30T01:32:48;3.10;99.90
17039;DHT22;8636;55.750;13.202;2024-01-30T01:35:29;3.20;99.90
17039;DHT22;8636;55.750;13.202;2024-01-30T01:37:57;3.20;99.90
17039;DHT22;8636;55.750;13.202;2024-01-30T01:40:33;3.10;99.90
17039;DHT22;8636;55.750;13.202;2024-01-30T01:43:03;3.20;99.90
17039;DHT22;8636;55.750;13.202;2024-01-30T01:45:38;3.20;99.90
17039;DHT22;8636;55.750;13.202;2024-01-30T01:48:07;3.20;99.90
17039;DHT22;8636;55.750;13.202;2024-01-30T01:50:43;3.20;99.90
17039;DHT22;8636;55.750;13.202;2024-01-30T01:53:17;3.20;99.90
17039;DHT22;8636;55.750;13.202;2024-01-30T01:55:52;3.20;99.90
17039;DHT22;8636;55.750;13.202;2024-01-30T01:58:21;3.20;99.90
17039;DHT22;8636;55.750;13.202;2024-01-30T02:00:57;3.30;99.90
17039;DHT22;8636;55.750;13.202;2024-01-30T02:03:25;3.30;99.90
17039;DHT22;8636;55.750;13.202;2024-01-30T02:06:01;3.30;99.90
17039;DHT22;8636;55.750;13.202;2024-01-30T02:08:30;3.30;99.90
17039;DHT22;8636;55.750;13.202;2024-01-30T02:11:05;3.30;99.90
17039;DHT22;8636;55.750;13.202;2024-01-30T02:13:33;3.30;99.90
17039;DHT22;8636;55.750;13.202;2024-01-30T02:16:14;3.30;99.90
17039;DHT22;8636;55.750;13.202;2024-01-30T02:18:55;3.30;99.90
17039;DHT22;8636;55.750;13.202;2024-01-30T02:21:31;3.30;99.90
17039;DHT22;8636;55.750;13.202;2024-01-30T02:24:00;3.30;99.90
17039;DHT22;8636;55.750;13.202;2024-01-30T02:26:35;3.30;99.90
17039;DHT22;8636;55.750;13.202;2024-01-30T02:29:03;3.30;99.90
17039;DHT22;8636;55.750;13.202;2024-01-30T02:31:37;3.20;99.90
17039;DHT22;8636;55.750;13.202;2024-01-30T02:34:05;3.20;99.90
17039;DHT22;8636;55.750;13.202;2024-01-30T02:36:43;3.20;99.90
17039;DHT22;8636;55.750;13.202;2024-01-30T02:39:11;3.20;99.90
17039;DHT22;8636;55.750;13.202;2024-01-30T02:41:46;3.20;99.90
17039;DHT22;8636;55.750;13.202;2024-01-30T02:44:14;3.20;99.90
17039;DHT22;8636;55.750;13.202;2024-01-30T02:46:48;3.20;99.90
17039;DHT22;8636;55.750;13.202;2024-01-30T02:49:16;3.20;99.90
17039;DHT22;8636;55.750;13.202;2024-01-30T02:51:53;3.20;99.90
17039;DHT22;8636;55.750;13.202;2024-01-30T02:54:21;3.20;99.90
17039;DHT22;8636;55.750;13.202;2024-01-30T02:56:55;3.20;99.90
17039;DHT22;8636;55.750;13.202;2024-01-30T02:59:23;3.20;99.90
17039;DHT22;8636;55.750;13.202;2024-01-30T03:01:57;3.20;99.90
17039;DHT22;8636;55.750;13.202;2024-01-30T03:04:26;3.20;99.90
17039;DHT22;8636;55.750;13.202;2024-01-30T03:07:02;3.20;99.90
17039;DHT22;8636;55.750;13.202;2024-01-30T03:09:30;3.20;99.90
17039;DHT22;8636;55.750;13.202;2024-01-30T03:12:05;3.30;99.90
17039;DHT22;8636;55.750;13.202;2024-01-30T03:14:37;3.20;99.90
17039;DHT22;8636;55.750;13.202;2024-01-30T03:17:18;3.30;99.90
17039;DHT22;8636;55.750;13.202;2024-01-30T03:19:46;3.30;99.90
17039;DHT22;8636;55.750;13.202;2024-01-30T03:22:22;3.30;99.90
17039;DHT22;8636;55.750;13.202;2024-01-30T03:24:50;3.30;99.90
17039;DHT22;8636;55.750;13.202;2024-01-30T03:27:24;3.30;99.90
17039;DHT22;8636;55.750;13.202;2024-01-30T03:29:52;3.30;99.90
17039;DHT22;8636;55.750;13.202;2024-01-30T03:32:26;3.30;99.90
17039;DHT22;8636;55.750;13.202;2024-01-30T03:34:54;3.40;99.90
17039;DHT22;8636;55.750;13.202;2024-01-30T03:37:30;3.40;99.90
17039;DHT22;8636;55.750;13.202;2024-01-30T03:39:58;3.40;99.90
17039;DHT22;8636;55.750;13.202;2024-01-30T03:42:33;3.40;99.90
17039;DHT22;8636;55.750;13.202;2024-01-30T03:45:01;3.40;99.90
17039;DHT22;8636;55.750;13.202;2024-01-30T03:47:35;3.40;99.90
17039;DHT22;8636;55.750;13.202;2024-01-30T03:50:04;3.40;99.90
17039;DHT22;8636;55.750;13.202;2024-01-30T03:52:40;3.40;99.90
17039;DHT22;8636;55.750;13.202;2024-01-30T03:55:08;3.40;99.90
17039;DHT22;8636;55.750;13.202;2024-01-30T03:57:42;3.40;99.90
17039;DHT22;8636;55.750;13.202;2024-01-30T04:00:11;3.40;99.90
17039;DHT22;8636;55.750;13.202;2024-01-30T04:02:47;3.50;99.90
17039;DHT22;8636;55.750;13.202;2024-01-30T04:05:17;3.40;99.90
17039;DHT22;8636;55.750;13.202;2024-01-30T04:07:54;3.40;99.90
17039;DHT22;8636;55.750;13.202;2024-01-30T04:10:21;3.40;99.90
17039;DHT22;8636;55.750;13.202;2024-01-30T04:12:56;3.50;99.90
17039;DHT22;8636;55.750;13.202;2024-01-30T04:15:24;3.40;99.90
17039;DHT22;8636;55.750;13.202;2024-01-30T04:17:58;3.40;99.90
17039;DHT22;8636;55.750;13.202;2024-01-30T04:20:39;3.40;99.90
17039;DHT22;8636;55.750;13.202;2024-01-30T04:23:15;3.40;99.90
17039;DHT22;8636;55.750;13.202;2024-01-30T04:25:42;3.40;99.90
17039;DHT22;8636;55.750;13.202;2024-01-30T04:28:18;3.30;99.90
17039;DHT22;8636;55.750;13.202;2024-01-30T04:30:46;3.30;99.90
17039;DHT22;8636;55.750;13.202;2024-01-30T04:33:20;3.30;99.90
17039;DHT22;8636;55.750;13.202;2024-01-30T04:35:48;3.30;99.90
17039;DHT22;8636;55.750;13.202;2024-01-30T04:38:17;3.30;99.90
17039;DHT22;8636;55.750;13.202;2024-01-30T04:40:52;3.30;99.90
17039;DHT22;8636;55.750;13.202;2024-01-30T04:43:20;3.30;99.90
17039;DHT22;8636;55.750;13.202;2024-01-30T04:45:55;3.30;99.90
17039;DHT22;8636;55.750;13.202;2024-01-30T04:48:22;3.40;99.90
17039;DHT22;8636;55.750;13.202;2024-01-30T04:50:58;3.40;99.90
17039;DHT22;8636;55.750;13.202;2024-01-30T04:53:29;3.40;99.90
17039;DHT22;8636;55.750;13.202;2024-01-30T04:56:05;3.40;99.90
17039;DHT22;8636;55.750;13.202;2024-01-30T04:58:33;3.40;99.90
17039;DHT22;8636;55.750;13.202;2024-01-30T05:01:07;3.30;99.90
17039;DHT22;8636;55.750;13.202;2024-01-30T05:03:37;3.40;99.90
17039;DHT22;8636;55.750;13.202;2024-01-30T05:06:11;3.40;99.90
17039;DHT22;8636;55.750;13.202;2024-01-30T05:08:41;3.40;99.90
17039;DHT22;8636;55.750;13.202;2024-01-30T05:11:15;3.30;99.90
17039;DHT22;8636;55.750;13.202;2024-01-30T05:13:43;3.30;99.90
17039;DHT22;8636;55.750;13.202;2024-01-30T05:16:17;3.30;99.90
17039;DHT22;8636;55.750;13.202;2024-01-30T05:18:58;3.30;99.90
17039;DHT22;8636;55.750;13.202;2024-01-30T05:21:33;3.30;99.90
17039;DHT22;8636;55.750;13.202;2024-01-30T05:24:03;3.30;99.90
17039;DHT22;8636;55.750;13.202;2024-01-30T05:26:37;3.30;99.90
17039;DHT22;8636;55.750;13.202;2024-01-30T05:29:06;3.30;99.90
17039;DHT22;8636;55.750;13.202;2024-01-30T05:31:40;3.30;99.90
17039;DHT22;8636;55.750;13.202;2024-01-30T05:34:08;3.40;99.90
17039;DHT22;8636;55.750;13.202;2024-01-30T05:36:42;3.40;99.90
17039;DHT22;8636;55.750;13.202;2024-01-30T05:39:12;3.40;99.90
17039;DHT22;8636;55.750;13.202;2024-01-30T05:41:46;3.40;99.90
17039;DHT22;8636;55.750;13.202;2024-01-30T05:44:14;3.40;99.90
17039;DHT22;8636;55.750;13.202;2024-01-30T05:46:48;3.40;99.90
17039;DHT22;8636;55.750;13.202;2024-01-30T05:49:16;3.50;99.90
17039;DHT22;8636;55.750;13.202;2024-01-30T05:51:50;3.50;99.90
17039;DHT22;8636;55.750;13.202;2024-01-30T05:54:20;3.50;99.90
17039;DHT22;8636;55.750;13.202;2024-01-30T05:56:54;3.50;99.90
17039;DHT22;8636;55.750;13.202;2024-01-30T05:59:22;3.50;99.90
17039;DHT22;8636;55.750;13.202;2024-01-30T06:01:56;3.50;99.90
17039;DHT22;8636;55.750;13.202;2024-01-30T06:04:24;3.60;99.90
17039;DHT22;8636;55.750;13.202;2024-01-30T06:06:59;3.50;99.90
17039;DHT22;8636;55.750;13.202;2024-01-30T06:09:30;3.60;99.90
17039;DHT22;8636;55.750;13.202;2024-01-30T06:12:05;3.60;99.90
17039;DHT22;8636;55.750;13.202;2024-01-30T06:14:33;3.50;99.90
17039;DHT22;8636;55.750;13.202;2024-01-30T06:17:10;3.50;99.90
17039;DHT22;8636;55.750;13.202;2024-01-30T06:19:51;3.50;99.90
17039;DHT22;8636;55.750;13.202;2024-01-30T06:22:25;3.50;99.90
17039;DHT22;8636;55.750;13.202;2024-01-30T06:24:55;3.50;99.90
17039;DHT22;8636;55.750;13.202;2024-01-30T06:27:29;3.50;99.90
17039;DHT22;8636;55.750;13.202;2024-01-30T06:29:57;3.50;99.90
17039;DHT22;8636;55.750;13.202;2024-01-30T06:32:31;3.50;99.90
17039;DHT22;8636;55.750;13.202;2024-01-30T06:35:01;3.50;99.90
17039;DHT22;8636;55.750;13.202;2024-01-30T06:37:35;3.40;99.90
17039;DHT22;8636;55.750;13.202;2024-01-30T06:40:06;3.50;99.90
17039;DHT22;8636;55.750;13.202;2024-01-30T06:42:41;3.40;99.90
17039;DHT22;8636;55.750;13.202;2024-01-30T06:45:09;3.50;99.90
17039;DHT22;8636;55.750;13.202;2024-01-30T06:47:43;3.40;99.90
17039;DHT22;8636;55.750;13.202;2024-01-30T06:50:14;3.50;99.90
17039;DHT22;8636;55.750;13.202;2024-01-30T06:52:48;3.50;99.90
17039;DHT22;8636;55.750;13.202;2024-01-30T06:55:19;3.50;99.90
17039;DHT22;8636;55.750;13.202;2024-01-30T06:57:53;3.50;99.90
17039;DHT22;8636;55.750;13.202;2024-01-30T07:00:21;3.50;99.90
17039;DHT22;8636;55.750;13.202;2024-01-30T07:02:58;3.50;99.90
17039;DHT22;8636;55.750;13.202;2024-01-30T07:05:25;3.60;99.90
17039;DHT22;8636;55.750;13.202;2024-01-30T07:07:59;3.60;99.90
17039;DHT22;8636;55.750;13.202;2024-01-30T07:10:29;3.60;99.90
17039;DHT22;8636;55.750;13.202;2024-01-30T07:13:04;3.60;99.90
17039;DHT22;8636;55.750;13.202;2024-01-30T07:15:33;3.60;99.90
17039;DHT22;8636;55.750;13.202;2024-01-30T07:18:07;3.60;99.90
17039;DHT22;8636;55.750;13.202;2024-01-30T07:20:42;3.60;99.90
17039;DHT22;8636;55.750;13.202;2024-01-30T07:23:19;3.70;99.90
17039;DHT22;8636;55.750;13.202;2024-01-30T07:25:50;3.70;99.90
17039;DHT22;8636;55.750;13.202;2024-01-30T07:28:24;3.70;99.90
17039;DHT22;8636;55.750;13.202;2024-01-30T07:30:53;3.80;99.90
17039;DHT22;8636;55.750;13.202;2024-01-30T07:33:27;3.80;99.90
17039;DHT22;8636;55.750;13.202;2024-01-30T07:35:55;3.80;99.90
17039;DHT22;8636;55.750;13.202;2024-01-30T07:38:31;3.90;99.90
17039;DHT22;8636;55.750;13.202;2024-01-30T07:41:01;3.90;99.90
17039;DHT22;8636;55.750;13.202;2024-01-30T07:43:35;3.90;99.90
17039;DHT22;8636;55.750;13.202;2024-01-30T07:46:03;3.90;99.90
17039;DHT22;8636;55.750;13.202;2024-01-30T07:48:42;3.90;99.90
17039;DHT22;8636;55.750;13.202;2024-01-30T07:51:10;3.90;99.90
17039;DHT22;8636;55.750;13.202;2024-01-30T07:53:44;3.90;99.90
17039;DHT22;8636;55.750;13.202;2024-01-30T07:56:16;3.90;99.90
17039;DHT22;8636;55.750;13.202;2024-01-30T07:58:51;3.90;99.90
17039;DHT22;8636;55.750;13.202;2024-01-30T08:01:18;3.90;99.90
17039;DHT22;8636;55.750;13.202;2024-01-30T08:03:52;3.90;99.90
17039;DHT22;8636;55.750;13.202;2024-01-30T08:06:20;3.90;99.90
17039;DHT22;8636;55.750;13.202;2024-01-30T08:08:54;4.00;99.90
17039;DHT22;8636;55.750;13.202;2024-01-30T08:11:25;4.00;99.90
17039;DHT22;8636;55.750;13.202;2024-01-30T08:14:00;4.00;99.90
17039;DHT22;8636;55.750;13.202;2024-01-30T08:16:28;4.10;99.90
17039;DHT22;8636;55.750;13.202;2024-01-30T08:19:09;4.10;99.90
17039;DHT22;8636;55.750;13.202;2024-01-30T08:21:37;4.10;99.90
17039;DHT22;8636;55.750;13.202;2024-01-30T08:24:12;4.10;99.90
17039;DHT22;8636;55.750;13.202;2024-01-30T08:26:41;4.20;99.90
17039;DHT22;8636;55.750;13.202;2024-01-30T08:29:16;4.20;99.90
17039;DHT22;8636;55.750;13.202;2024-01-30T08:31:44;4.20;99.90
17039;DHT22;8636;55.750;13.202;2024-01-30T08:34:19;4.30;99.90
17039;DHT22;8636;55.750;13.202;2024-01-30T08:36:47;4.30;99.90
17039;DHT22;8636;55.750;13.202;2024-01-30T08:39:21;4.30;99.90
17039;DHT22;8636;55.750;13.202;2024-01-30T08:41:51;4.40;99.90
17039;DHT22;8636;55.750;13.202;2024-01-30T08:44:26;4.40;99.90
17039;DHT22;8636;55.750;13.202;2024-01-30T08:46:54;4.40;99.90
17039;DHT22;8636;55.750;13.202;2024-01-30T08:49:28;4.50;99.90
17039;DHT22;8636;55.750;13.202;2024-01-30T08:51:57;4.50;99.90
17039;DHT22;8636;55.750;13.202;2024-01-30T08:54:32;4.50;99.90
17039;DHT22;8636;55.750;13.202;2024-01-30T08:57:03;4.50;99.90
17039;DHT22;8636;55.750;13.202;2024-01-30T08:59:37;4.50;99.90
17039;DHT22;8636;55.750;13.202;2024-01-30T09:02:06;4.50;99.90
17039;DHT22;8636;55.750;13.202;2024-01-30T09:04:42;4.60;99.90
17039;DHT22;8636;55.750;13.202;2024-01-30T09:07:10;4.60;99.90
17039;DHT22;8636;55.750;13.202;2024-01-30T09:09:46;4.60;99.90
17039;DHT22;8636;55.750;13.202;2024-01-30T09:12:17;4.60;99.90
17039;DHT22;8636;55.750;13.202;2024-01-30T09:14:51;4.70;99.90
17039;DHT22;8636;55.750;13.202;2024-01-30T09:17:20;4.70;99.90
17039;DHT22;8636;55.750;13.202;2024-01-30T09:20:09;4.80;99.90
17039;DHT22;8636;55.750;13.202;2024-01-30T09:22:37;4.90;99.90
17039;DHT22;8636;55.750;13.202;2024-01-30T09:25:13;4.90;99.90
17039;DHT22;8636;55.750;13.202;2024-01-30T09:27:42;5.00;99.90
17039;DHT22;8636;55.750;13.202;2024-01-30T09:30:17;5.10;99.90
17039;DHT22;8636;55.750;13.202;2024-01-30T09:32:45;5.10;99.90
17039;DHT22;8636;55.750;13.202;2024-01-30T09:35:19;5.10;99.90
17039;DHT22;8636;55.750;13.202;2024-01-30T09:37:48;5.20;99.90
17039;DHT22;8636;55.750;13.202;2024-01-30T09:40:23;5.20;99.90
17039;DHT22;8636;55.750;13.202;2024-01-30T09:42:52;5.30;99.90
17039;DHT22;8636;55.750;13.202;2024-01-30T09:45:28;5.30;99.90
17039;DHT22;8636;55.750;13.202;2024-01-30T09:47:59;5.40;99.90
17039;DHT22;8636;55.750;13.202;2024-01-30T09:50:34;5.30;99.90
17039;DHT22;8636;55.750;13.202;2024-01-30T09:53:04;5.30;99.90
17039;DHT22;8636;55.750;13.202;2024-01-30T09:55:40;5.40;99.90
17039;DHT22;8636;55.750;13.202;2024-01-30T09:58:12;5.40;99.90
17039;DHT22;8636;55.750;13.202;2024-01-30T10:00:47;5.40;99.90
17039;DHT22;8636;55.750;13.202;2024-01-30T10:03:15;5.40;99.90
17039;DHT22;8636;55.750;13.202;2024-01-30T10:05:51;5.40;99.90
17039;DHT22;8636;55.750;13.202;2024-01-30T10:08:20;5.40;99.90
17039;DHT22;8636;55.750;13.202;2024-01-30T10:10:54;5.40;99.90
17039;DHT22;8636;55.750;13.202;2024-01-30T10:13:24;5.40;99.90
17039;DHT22;8636;55.750;13.202;2024-01-30T10:15:58;5.40;99.90
17039;DHT22;8636;55.750;13.202;2024-01-30T10:18:29;5.50;99.90
17039;DHT22;8636;55.750;13.202;2024-01-30T10:21:10;5.40;99.90
17039;DHT22;8636;55.750;13.202;2024-01-30T10:23:38;5.50;99.90
17039;DHT22;8636;55.750;13.202;2024-01-30T10:26:12;5.50;99.90
17039;DHT22;8636;55.750;13.202;2024-01-30T10:28:42;5.50;99.90
17039;DHT22;8636;55.750;13.202;2024-01-30T10:31:17;5.50;99.90
17039;DHT22;8636;55.750;13.202;2024-01-30T10:33:45;5.60;99.90
17039;DHT22;8636;55.750;13.202;2024-01-30T10:36:40;5.60;99.90
17039;DHT22;8636;55.750;13.202;2024-01-30T10:39:08;5.60;99.90
17039;DHT22;8636;55.750;13.202;2024-01-30T10:41:44;5.60;99.90
17039;DHT22;8636;55.750;13.202;2024-01-30T10:44:18;5.60;99.90
17039;DHT22;8636;55.750;13.202;2024-01-30T10:46:59;5.60;99.90
17039;DHT22;8636;55.750;13.202;2024-01-30T10:49:28;5.60;99.90
17039;DHT22;8636;55.750;13.202;2024-01-30T10:52:05;5.60;99.90
17039;DHT22;8636;55.750;13.202;2024-01-30T10:54:35;5.60;99.90
17039;DHT22;8636;55.750;13.202;2024-01-30T10:57:12;5.60;99.90
17039;DHT22;8636;55.750;13.202;2024-01-30T10:59:43;5.60;99.90
17039;DHT22;8636;55.750;13.202;2024-01-30T11:02:17;5.60;99.90
17039;DHT22;8636;55.750;13.202;2024-01-30T11:04:46;5.60;99.90
17039;DHT22;8636;55.750;13.202;2024-01-30T11:07:24;5.60;99.90
17039;DHT22;8636;55.750;13.202;2024-01-30T11:09:53;5.70;99.90
17039;DHT22;8636;55.750;13.202;2024-01-30T11:12:30;5.70;99.90
17039;DHT22;8636;55.750;13.202;2024-01-30T11:15:06;5.70;99.90
17039;DHT22;8636;55.750;13.202;2024-01-30T11:17:51;5.60;99.90
17039;DHT22;8636;55.750;13.202;2024-01-30T11:20:33;5.70;99.90
17039;DHT22;8636;55.750;13.202;2024-01-30T11:23:11;5.70;99.90
17039;DHT22;8636;55.750;13.202;2024-01-30T11:25:47;5.70;99.90
17039;DHT22;8636;55.750;13.202;2024-01-30T11:28:22;5.70;99.90
17039;DHT22;8636;55.750;13.202;2024-01-30T11:30:51;5.70;99.90
17039;DHT22;8636;55.750;13.202;2024-01-30T11:33:36;5.70;99.90
17039;DHT22;8636;55.750;13.202;2024-01-30T11:36:05;5.60;99.90
17039;DHT22;8636;55.750;13.202;2024-01-30T11:38:44;5.70;99.90
17039;DHT22;8636;55.750;13.202;2024-01-30T11:41:14;5.70;99.90
17039;DHT22;8636;55.750;13.202;2024-01-30T11:43:52;5.70;99.90
17039;DHT22;8636;55.750;13.202;2024-01-30T11:46:24;5.80;99.90
17039;DHT22;8636;55.750;13.202;2024-01-30T11:49:00;5.70;99.90
17039;DHT22;8636;55.750;13.202;2024-01-30T11:51:28;5.80;99.90
17039;DHT22;8636;55.750;13.202;2024-01-30T11:54:04;5.80;99.90
17039;DHT22;8636;55.750;13.202;2024-01-30T11:56:33;5.80;99.90
17039;DHT22;8636;55.750;13.202;2024-01-30T11:59:07;5.90;99.90
17039;DHT22;8636;55.750;13.202;2024-01-30T12:01:37;5.90;99.90
17039;DHT22;8636;55.750;13.202;2024-01-30T12:04:12;5.90;99.90
17039;DHT22;8636;55.750;13.202;2024-01-30T12:06:40;5.90;99.90
17039;DHT22;8636;55.750;13.202;2024-01-30T12:09:15;5.90;99.90
17039;DHT22;8636;55.750;13.202;2024-01-30T12:11:44;5.90;99.90
17039;DHT22;8636;55.750;13.202;2024-01-30T12:14:19;6.00;99.90
17039;DHT22;8636;55.750;13.202;2024-01-30T12:16:50;6.00;99.90
17039;DHT22;8636;55.750;13.202;2024-01-30T12:19:25;6.00;99.90
17039;DHT22;8636;55.750;13.202;2024-01-30T12:22:00;6.00;99.90
17039;DHT22;8636;55.750;13.202;2024-01-30T12:24:35;6.10;99.90
17039;DHT22;8636;55.750;13.202;2024-01-30T12:27:03;6.00;99.90
17039;DHT22;8636;55.750;13.202;2024-01-30T12:29:41;6.10;99.90
17039;DHT22;8636;55.750;13.202;2024-01-30T12:32:17;6.10;99.90
17039;DHT22;8636;55.750;13.202;2024-01-30T12:34:55;6.00;99.90
17039;DHT22;8636;55.750;13.202;2024-01-30T12:37:27;6.00;99.90
17039;DHT22;8636;55.750;13.202;2024-01-30T12:40:03;6.10;99.90
17039;DHT22;8636;55.750;13.202;2024-01-30T12:42:32;6.10;99.90
17039;DHT22;8636;55.750;13.202;2024-01-30T12:45:07;6.10;99.90
17039;DHT22;8636;55.750;13.202;2024-01-30T12:47:37;6.20;99.90
17039;DHT22;8636;55.750;13.202;2024-01-30T12:50:12;6.20;99.90
17039;DHT22;8636;55.750;13.202;2024-01-30T12:52:42;6.20;99.90
17039;DHT22;8636;55.750;13.202;2024-01-30T12:55:17;6.20;99.90
17039;DHT22;8636;55.750;13.202;2024-01-30T12:57:45;6.20;99.90
17039;DHT22;8636;55.750;13.202;2024-01-30T13:00:20;6.10;99.90
17039;DHT22;8636;55.750;13.202;2024-01-30T13:02:50;6.20;99.90
17039;DHT22;8636;55.750;13.202;2024-01-30T13:05:25;6.20;99.90
17039;DHT22;8636;55.750;13.202;2024-01-30T13:07:53;6.10;99.90
17039;DHT22;8636;55.750;13.202;2024-01-30T13:10:29;6.10;99.90
17039;DHT22;8636;55.750;13.202;2024-01-30T13:12:57;6.10;99.90
17039;DHT22;8636;55.750;13.202;2024-01-30T13:15:42;6.20;99.90
17039;DHT22;8636;55.750;13.202;2024-01-30T13:18:11;6.20;99.90
17039;DHT22;8636;55.750;13.202;2024-01-30T13:20:46;6.20;99.90
17039;DHT22;8636;55.750;13.202;2024-01-30T13:23:14;6.10;99.90
17039;DHT22;8636;55.750;13.202;2024-01-30T13:25:48;6.10;99.90
17039;DHT22;8636;55.750;13.202;2024-01-30T13:28:16;6.10;99.90
17039;DHT22;8636;55.750;13.202;2024-01-30T13:30:51;6.10;99.90
17039;DHT22;8636;55.750;13.202;2024-01-30T13:33:20;6.10;99.90
17039;DHT22;8636;55.750;13.202;2024-01-30T13:35:55;6.10;99.90
17039;DHT22;8636;55.750;13.202;2024-01-30T13:38:22;6.20;99.90
17039;DHT22;8636;55.750;13.202;2024-01-30T13:40:56;6.10;99.90
17039;DHT22;8636;55.750;13.202;2024-01-30T13:43:25;6.10;99.90
17039;DHT22;8636;55.750;13.202;2024-01-30T13:46:00;6.10;99.90
17039;DHT22;8636;55.750;13.202;2024-01-30T13:48:29;6.10;99.90
17039;DHT22;8636;55.750;13.202;2024-01-30T13:51:04;6.10;99.90
17039;DHT22;8636;55.750;13.202;2024-01-30T13:53:32;6.10;99.90
17039;DHT22;8636;55.750;13.202;2024-01-30T13:56:07;6.10;99.90
17039;DHT22;8636;55.750;13.202;2024-01-30T13:58:35;6.10;99.90
17039;DHT22;8636;55.750;13.202;2024-01-30T14:01:09;6.10;99.90
17039;DHT22;8636;55.750;13.202;2024-01-30T14:03:39;6.10;99.90
17039;DHT22;8636;55.750;13.202;2024-01-30T14:06:13;6.10;99.90
17039;DHT22;8636;55.750;13.202;2024-01-30T14:08:42;6.10;99.90
17039;DHT22;8636;55.750;13.202;2024-01-30T14:11:26;6.10;99.90
17039;DHT22;8636;55.750;13.202;2024-01-30T14:13:54;6.10;99.90
17039;DHT22;8636;55.750;13.202;2024-01-30T14:16:28;6.10;99.90
17039;DHT22;8636;55.750;13.202;2024-01-30T14:19:05;6.10;99.90
17039;DHT22;8636;55.750;13.202;2024-01-30T14:21:40;6.00;99.90
17039;DHT22;8636;55.750;13.202;2024-01-30T14:24:10;6.00;99.90
17039;DHT22;8636;55.750;13.202;2024-01-30T14:26:45;6.00;99.90
17039;DHT22;8636;55.750;13.202;2024-01-30T14:29:13;5.90;99.90
17039;DHT22;8636;55.750;13.202;2024-01-30T14:31:47;5.90;99.90
17039;DHT22;8636;55.750;13.202;2024-01-30T14:34:17;5.90;99.90
17039;DHT22;8636;55.750;13.202;2024-01-30T14:36:52;5.80;99.90
17039;DHT22;8636;55.750;13.202;2024-01-30T14:39:20;5.80;99.90
17039;DHT22;8636;55.750;13.202;2024-01-30T14:41:56;5.80;99.90
17039;DHT22;8636;55.750;13.202;2024-01-30T14:44:24;5.70;99.90
17039;DHT22;8636;55.750;13.202;2024-01-30T14:46:58;5.60;99.90
17039;DHT22;8636;55.750;13.202;2024-01-30T14:49:28;5.60;99.90
17039;DHT22;8636;55.750;13.202;2024-01-30T14:52:03;5.50;99.90
17039;DHT22;8636;55.750;13.202;2024-01-30T14:54:31;5.50;99.90
17039;DHT22;8636;55.750;13.202;2024-01-30T14:57:09;5.50;99.90
17039;DHT22;8636;55.750;13.202;2024-01-30T14:59:37;5.50;99.90
17039;DHT22;8636;55.750;13.202;2024-01-30T15:02:12;5.50;99.90
17039;DHT22;8636;55.750;13.202;2024-01-30T15:04:41;5.50;99.90
17039;DHT22;8636;55.750;13.202;2024-01-30T15:07:16;5.50;99.90
17039;DHT22;8636;55.750;13.202;2024-01-30T15:09:58;5.50;99.90
17039;DHT22;8636;55.750;13.202;2024-01-30T15:12:34;5.50;99.90
17039;DHT22;8636;55.750;13.202;2024-01-30T15:15:02;5.50;99.90
17039;DHT22;8636;55.750;13.202;2024-01-30T15:17:38;5.40;99.90
17039;DHT22;8636;55.750;13.202;2024-01-30T15:20:21;5.40;99.90
17039;DHT22;8636;55.750;13.202;2024-01-30T15:22:55;5.30;99.90
17039;DHT22;8636;55.750;13.202;2024-01-30T15:25:24;5.20;99.90
17039;DHT22;8636;55.750;13.202;2024-01-30T15:27:59;5.10;99.90
17039;DHT22;8636;55.750;13.202;2024-01-30T15:30:27;5.10;99.90
17039;DHT22;8636;55.750;13.202;2024-01-30T15:33:02;5.00;99.90
17039;DHT22;8636;55.750;13.202;2024-01-30T15:35:31;5.00;99.90
17039;DHT22;8636;55.750;13.202;2024-01-30T15:38:07;5.00;99.90
17039;DHT22;8636;55.750;13.202;2024-01-30T15:40:35;4.90;99.90
17039;DHT22;8636;55.750;13.202;2024-01-30T15:43:10;5.00;99.90
17039;DHT22;8636;55.750;13.202;2024-01-30T15:45:38;5.00;99.90
17039;DHT22;8636;55.750;13.202;2024-01-30T15:48:13;5.00;99.90
17039;DHT22;8636;55.750;13.202;2024-01-30T15:50:42;5.00;99.90
17039;DHT22;8636;55.750;13.202;2024-01-30T15:53:16;5.00;99.90
17039;DHT22;8636;55.750;13.202;2024-01-30T15:55:44;5.00;99.90
17039;DHT22;8636;55.750;13.202;2024-01-30T15:58:19;5.00;99.90
17039;DHT22;8636;55.750;13.202;2024-01-30T16:00:47;5.00;99.90
17039;DHT22;8636;55.750;13.202;2024-01-30T16:03:22;5.00;99.90
17039;DHT22;8636;55.750;13.202;2024-01-30T16:05:53;5.00;99.90
17039;DHT22;8636;55.750;13.202;2024-01-30T16:08:27;5.00;99.90
17039;DHT22;8636;55.750;13.202;2024-01-30T16:11:04;5.00;99.90
17039;DHT22;8636;55.750;13.202;2024-01-30T16:13:52;5.00;99.90
17039;DHT22;8636;55.750;13.202;2024-01-30T16:16:20;5.00;99.90
17039;DHT22;8636;55.750;13.202;2024-01-30T16:18:56;5.00;99.90